createdAt,value
2023-05-19T00:01:52.746Z,0.77
2023-05-19T00:04:21.294Z,0.88
2023-05-19T00:06:52.577Z,0.73
2023-05-19T00:09:21.379Z,0.93
2023-05-19T00:11:49.949Z,0.50
2023-05-19T00:14:19.700Z,1.03
2023-05-19T00:16:49.041Z,1.13
2023-05-19T00:19:17.154Z,0.82
2023-05-19T00:21:45.417Z,0.70
2023-05-19T00:24:13.603Z,0.80
2023-05-19T00:26:41.861Z,0.80
2023-05-19T00:29:09.824Z,0.90
2023-05-19T00:31:39.060Z,0.93
2023-05-19T00:34:06.747Z,0.90
2023-05-19T00:36:34.858Z,0.85
2023-05-19T00:39:03.095Z,0.80
2023-05-19T00:41:32.649Z,1.15
2023-05-19T00:44:01.053Z,0.57
2023-05-19T00:46:30.629Z,0.90
2023-05-19T00:49:00.202Z,1.23
2023-05-19T00:51:31.659Z,1.20
2023-05-19T00:53:59.653Z,0.82
2023-05-19T00:56:28.765Z,0.80
2023-05-19T00:58:56.923Z,0.80
2023-05-19T01:01:27.397Z,0.88
2023-05-19T01:03:56.852Z,0.70
2023-05-19T01:06:27.980Z,0.73
2023-05-19T01:08:57.712Z,0.93
2023-05-19T01:11:26.145Z,0.93
2023-05-19T01:13:54.565Z,1.08
2023-05-19T01:16:32.402Z,0.73
2023-05-19T01:19:05.485Z,0.80
2023-05-19T01:22:13.564Z,0.77
2023-05-19T01:25:20.189Z,1.00
2023-05-19T01:28:10.872Z,0.93
2023-05-19T01:30:41.909Z,1.03
2023-05-19T01:33:14.134Z,0.88
2023-05-19T01:35:44.501Z,1.15
2023-05-19T01:38:14.381Z,1.13
2023-05-19T01:40:44.326Z,0.90
2023-05-19T01:43:16.615Z,1.10
2023-05-19T01:45:47.014Z,1.40
2023-05-19T01:48:16.290Z,0.80
2023-05-19T01:50:44.274Z,1.00
2023-05-19T01:53:13.168Z,0.90
2023-05-19T01:55:45.676Z,0.80
2023-05-19T01:58:22.059Z,0.98
2023-05-19T02:00:58.190Z,0.90
2023-05-19T02:03:44.345Z,0.80
2023-05-19T02:06:23.031Z,0.82
2023-05-19T02:08:59.092Z,0.70
2023-05-19T02:11:36.987Z,1.17
2023-05-19T02:14:10.781Z,1.23
2023-05-19T02:16:41.080Z,1.00
2023-05-19T02:19:22.192Z,1.10
2023-05-19T02:21:51.238Z,0.80
2023-05-19T02:24:20.150Z,0.95
2023-05-19T02:26:48.637Z,0.70
2023-05-19T02:29:17.525Z,0.98
2023-05-19T02:31:47.682Z,0.93
2023-05-19T02:34:19.285Z,1.03
2023-05-19T02:36:50.148Z,1.05
2023-05-19T02:39:18.180Z,1.20
2023-05-19T02:41:46.231Z,1.08
2023-05-19T02:44:14.387Z,1.00
2023-05-19T02:46:42.802Z,1.13
2023-05-19T02:49:12.440Z,0.70
2023-05-19T02:51:43.442Z,0.90
2023-05-19T02:54:11.598Z,1.20
2023-05-19T02:56:39.722Z,1.45
2023-05-19T02:59:07.383Z,1.10
2023-05-19T03:01:38.125Z,1.65
2023-05-19T03:04:08.258Z,1.30
2023-05-19T03:06:39.877Z,1.10
2023-05-19T03:09:07.912Z,1.33
2023-05-19T03:11:36.260Z,1.37
2023-05-19T03:14:06.219Z,1.20
2023-05-19T03:16:34.483Z,1.58
2023-05-19T03:19:02.939Z,1.10
2023-05-19T03:21:32.213Z,1.10
2023-05-19T03:24:01.653Z,1.10
2023-05-19T03:26:30.588Z,1.00
2023-05-19T03:28:58.994Z,1.10
2023-05-19T03:31:27.879Z,1.27
2023-05-19T03:33:57.855Z,1.27
2023-05-19T03:36:26.972Z,1.27
2023-05-19T03:38:54.662Z,1.40
2023-05-19T03:41:24.102Z,1.40
2023-05-19T03:43:52.333Z,1.23
2023-05-19T03:46:20.560Z,1.63
2023-05-19T03:48:48.766Z,1.17
2023-05-19T03:51:17.085Z,1.17
2023-05-19T03:53:46.028Z,1.50
2023-05-19T03:56:14.906Z,1.40
2023-05-19T03:58:48.430Z,1.10
2023-05-19T04:01:17.141Z,1.73
2023-05-19T04:03:45.462Z,1.30
2023-05-19T04:06:14.282Z,1.20
2023-05-19T04:08:44.282Z,1.23
2023-05-19T04:11:12.870Z,1.38
2023-05-19T04:13:40.750Z,1.40
2023-05-19T04:16:10.481Z,1.05
2023-05-19T04:18:38.453Z,1.08
2023-05-19T04:21:08.703Z,1.17
2023-05-19T04:23:36.799Z,1.10
2023-05-19T04:26:07.093Z,1.57
2023-05-19T04:28:39.247Z,1.42
2023-05-19T04:31:11.184Z,1.35
2023-05-19T04:33:41.151Z,1.40
2023-05-19T04:36:13.723Z,1.25
2023-05-19T04:38:42.521Z,1.80
2023-05-19T04:41:10.901Z,1.40
2023-05-19T04:43:48.643Z,1.40
2023-05-19T04:46:17.385Z,1.50
2023-05-19T04:48:49.293Z,1.25
2023-05-19T04:51:18.014Z,1.07
2023-05-19T04:53:45.636Z,1.30
2023-05-19T04:56:15.642Z,1.27
2023-05-19T04:58:44.856Z,1.10
2023-05-19T05:01:13.932Z,1.40
2023-05-19T05:03:42.386Z,1.60
2023-05-19T05:06:11.891Z,1.67
2023-05-19T05:08:41.474Z,1.35
2023-05-19T05:11:10.107Z,1.23
2023-05-19T05:13:38.359Z,1.70
2023-05-19T05:16:08.544Z,1.47
2023-05-19T05:18:38.878Z,1.27
2023-05-19T05:21:08.564Z,1.50
2023-05-19T05:23:39.103Z,1.50
2023-05-19T05:26:12.097Z,1.30
2023-05-19T05:28:39.805Z,1.23
2023-05-19T05:31:09.943Z,1.25
2023-05-19T05:33:38.783Z,1.58
2023-05-19T05:36:07.540Z,1.42
2023-05-19T05:38:36.788Z,1.63
2023-05-19T05:41:06.576Z,1.00
2023-05-19T05:43:34.536Z,1.08
2023-05-19T05:46:02.216Z,1.50
2023-05-19T05:48:31.858Z,1.40
2023-05-19T05:51:01.692Z,1.45
2023-05-19T05:53:32.202Z,1.30
2023-05-19T05:56:00.530Z,1.95
2023-05-19T05:58:29.934Z,1.13
2023-05-19T06:01:00.506Z,1.10
2023-05-19T06:03:28.503Z,1.20
2023-05-19T06:05:56.541Z,1.17
2023-05-19T06:08:27.516Z,1.00
2023-05-19T06:10:58.233Z,1.25
2023-05-19T06:13:26.593Z,1.15
2023-05-19T06:15:55.756Z,1.33
2023-05-19T06:18:23.769Z,1.53
2023-05-19T06:20:51.874Z,1.40
2023-05-19T06:23:19.581Z,1.23
2023-05-19T06:25:47.545Z,1.15
2023-05-19T06:28:15.931Z,1.40
2023-05-19T06:30:43.907Z,1.40
2023-05-19T06:33:13.340Z,1.55
2023-05-19T06:35:41.255Z,1.60
2023-05-19T06:38:09.185Z,1.50
2023-05-19T06:40:37.890Z,1.40
2023-05-19T06:43:06.121Z,1.90
2023-05-19T06:45:36.276Z,1.30
2023-05-19T06:48:04.669Z,1.70
2023-05-19T06:50:34.401Z,1.17
2023-05-19T06:53:02.528Z,1.20
2023-05-19T06:55:31.530Z,1.37
2023-05-19T06:57:59.543Z,1.27
2023-05-19T07:00:27.454Z,1.52
2023-05-19T07:02:55.823Z,1.48
2023-05-19T07:05:24.010Z,1.30
2023-05-19T07:07:53.921Z,1.13
2023-05-19T07:10:25.680Z,1.50
2023-05-19T07:12:53.617Z,1.27
2023-05-19T07:15:21.785Z,1.67
2023-05-19T07:17:50.338Z,1.38
2023-05-19T07:20:18.461Z,1.33
2023-05-19T07:22:46.320Z,1.25
2023-05-19T07:25:15.515Z,1.83
2023-05-19T07:27:43.423Z,1.38
2023-05-19T07:30:12.289Z,1.60
2023-05-19T07:32:40.035Z,1.20
2023-05-19T07:35:08.554Z,1.60
2023-05-19T07:37:36.666Z,1.15
2023-05-19T07:40:05.219Z,1.27
2023-05-19T07:42:35.100Z,1.50
2023-05-19T07:45:03.684Z,1.30
2023-05-19T07:47:32.008Z,1.50
2023-05-19T07:50:00.262Z,1.25
2023-05-19T07:52:28.273Z,1.55
2023-05-19T07:54:56.363Z,1.10
2023-05-19T07:57:24.299Z,1.00
2023-05-19T07:59:56.714Z,1.05
2023-05-19T08:02:25.079Z,1.40
2023-05-19T08:04:53.370Z,1.25
2023-05-19T08:07:21.756Z,1.23
2023-05-19T08:09:49.951Z,1.33
2023-05-19T08:12:18.112Z,1.10
2023-05-19T08:14:47.385Z,1.30
2023-05-19T08:17:16.606Z,0.90
2023-05-19T08:19:44.502Z,1.20
2023-05-19T08:22:12.503Z,0.93
2023-05-19T08:24:42.652Z,1.13
2023-05-19T08:27:10.566Z,1.10
2023-05-19T08:29:38.645Z,1.00
2023-05-19T08:32:12.966Z,1.10
2023-05-19T08:34:43.032Z,1.33
2023-05-19T08:37:11.943Z,0.77
2023-05-19T08:39:40.235Z,1.08
2023-05-19T08:42:10.679Z,1.20
2023-05-19T08:44:40.322Z,1.20
2023-05-19T08:47:14.138Z,1.20
2023-05-19T08:49:48.127Z,1.27
2023-05-19T08:52:29.234Z,1.02
2023-05-19T08:55:04.607Z,0.90
2023-05-19T08:57:34.493Z,0.95
2023-05-19T09:00:06.375Z,1.13
2023-05-19T09:02:35.392Z,0.80
2023-05-19T09:05:05.252Z,1.27
2023-05-19T09:07:34.909Z,1.30
2023-05-19T09:10:02.923Z,0.93
2023-05-19T09:12:31.814Z,0.80
2023-05-19T09:15:00.191Z,0.90
2023-05-19T09:17:28.479Z,1.00
2023-05-19T09:19:56.402Z,1.05
2023-05-19T09:22:26.735Z,0.95
2023-05-19T09:24:54.442Z,0.90
2023-05-19T09:27:23.940Z,0.98
2023-05-19T09:29:52.380Z,0.70
2023-05-19T09:32:27.375Z,1.00
2023-05-19T09:34:55.672Z,0.90
2023-05-19T09:37:26.019Z,0.60
2023-05-19T09:39:54.614Z,0.80
2023-05-19T09:42:27.004Z,0.88
2023-05-19T09:45:01.830Z,0.70
2023-05-19T09:47:34.144Z,1.20
2023-05-19T09:50:03.923Z,0.90
2023-05-19T09:52:34.720Z,0.80
2023-05-19T09:55:04.490Z,1.05
2023-05-19T09:57:37.333Z,0.80
2023-05-19T10:00:14.357Z,0.70
2023-05-19T10:02:45.400Z,0.90
2023-05-19T10:05:17.475Z,0.82
2023-05-19T10:07:51.669Z,0.80
2023-05-19T10:10:21.311Z,1.00
2023-05-19T10:12:50.402Z,0.82
2023-05-19T10:15:21.429Z,1.00
2023-05-19T10:17:52.670Z,0.95
2023-05-19T10:20:20.908Z,1.13
2023-05-19T10:22:51.027Z,0.90
2023-05-19T10:25:21.015Z,1.05
2023-05-19T10:27:54.375Z,1.00
2023-05-19T10:30:27.899Z,0.70
2023-05-19T10:32:58.553Z,1.33
2023-05-19T10:36:11.180Z,0.93
2023-05-19T10:38:44.093Z,1.20
2023-05-19T10:41:18.354Z,0.90
2023-05-19T10:43:53.900Z,0.90
2023-05-19T10:46:27.513Z,0.98
2023-05-19T10:48:55.492Z,1.25
2023-05-19T10:51:30.257Z,1.10
2023-05-19T10:54:02.830Z,0.97
2023-05-19T10:56:34.615Z,1.05
2023-05-19T10:59:05.063Z,0.90
2023-05-19T11:01:34.638Z,0.98
2023-05-19T11:04:10.298Z,0.70
2023-05-19T11:06:40.582Z,0.63
2023-05-19T11:09:17.031Z,0.82
2023-05-19T11:11:47.842Z,0.98
2023-05-19T11:14:17.633Z,1.10
2023-05-19T11:16:48.678Z,0.80
2023-05-19T11:19:21.357Z,1.00
2023-05-19T11:21:50.684Z,1.15
2023-05-19T11:24:40.075Z,0.80
2023-05-19T11:27:29.029Z,0.90
2023-05-19T11:29:59.222Z,0.55
2023-05-19T11:32:30.342Z,0.93
2023-05-19T11:34:59.917Z,0.98
2023-05-19T11:37:28.951Z,0.90
2023-05-19T11:39:59.471Z,0.70
2023-05-19T11:42:28.790Z,1.15
2023-05-19T11:44:57.447Z,0.70
2023-05-19T11:47:25.673Z,0.90
2023-05-19T11:50:00.839Z,0.68
2023-05-19T11:52:29.407Z,1.30
2023-05-19T11:55:01.589Z,1.00
2023-05-19T11:57:29.602Z,1.07
2023-05-19T11:59:57.507Z,1.10
2023-05-19T12:02:27.634Z,0.93
2023-05-19T12:04:56.199Z,1.15
2023-05-19T12:07:26.199Z,1.15
2023-05-19T12:09:55.756Z,1.37
2023-05-19T12:12:27.043Z,1.00
2023-05-19T12:14:54.655Z,0.85
2023-05-19T12:17:26.593Z,1.42
2023-05-19T12:19:55.340Z,0.93
2023-05-19T12:22:26.503Z,1.10
2023-05-19T12:24:54.418Z,1.15
2023-05-19T12:27:27.470Z,1.10
2023-05-19T12:30:00.326Z,1.15
2023-05-19T12:32:29.503Z,0.90
2023-05-19T12:34:58.167Z,0.80
2023-05-19T12:37:27.987Z,0.80
2023-05-19T12:39:56.816Z,1.10
2023-05-19T12:42:31.128Z,1.08
2023-05-19T12:45:03.105Z,1.10
2023-05-19T12:47:33.618Z,0.60
2023-05-19T12:50:06.697Z,1.30
2023-05-19T12:52:36.914Z,0.82
2023-05-19T12:55:07.012Z,0.90
2023-05-19T12:57:41.897Z,0.90
2023-05-19T13:00:17.384Z,0.90
2023-05-19T13:02:59.967Z,1.13
2023-05-19T13:05:30.276Z,0.77
2023-05-19T13:07:59.724Z,1.17
2023-05-19T13:10:28.559Z,0.95
2023-05-19T13:13:01.475Z,0.70
2023-05-19T13:15:31.827Z,1.40
2023-05-19T13:17:59.903Z,1.00
2023-05-19T13:20:28.705Z,0.68
2023-05-19T13:22:58.731Z,0.65
2023-05-19T13:25:29.618Z,0.60
2023-05-19T13:28:01.330Z,0.60
2023-05-19T13:30:29.537Z,0.90
2023-05-19T13:33:01.040Z,0.98
2023-05-19T13:35:29.646Z,0.80
2023-05-19T13:37:57.427Z,0.90
2023-05-19T13:40:30.371Z,0.68
2023-05-19T13:43:00.383Z,0.80
2023-05-19T13:45:28.779Z,0.77
2023-05-19T13:47:57.492Z,0.95
2023-05-19T13:50:25.222Z,0.67
2023-05-19T13:52:53.495Z,1.27
2023-05-19T13:55:23.261Z,1.05
2023-05-19T13:57:52.270Z,0.88
2023-05-19T14:00:22.155Z,0.70
2023-05-19T14:02:51.980Z,0.80
2023-05-19T14:05:21.940Z,0.60
2023-05-19T14:07:49.672Z,1.00
2023-05-19T14:10:23.409Z,0.88
2023-05-19T14:15:27.779Z,0.70
2023-05-19T14:17:56.106Z,0.90
2023-05-19T14:20:23.860Z,0.80
2023-05-19T14:22:51.852Z,0.88
2023-05-19T14:25:20.428Z,1.00
2023-05-19T14:27:48.206Z,1.20
2023-05-19T14:30:15.907Z,1.85
2023-05-19T14:32:47.336Z,1.00
2023-05-19T14:35:18.633Z,1.00
2023-05-19T14:37:46.675Z,1.10
2023-05-19T14:40:15.563Z,0.70
2023-05-19T14:42:43.411Z,0.80
2023-05-19T14:45:16.222Z,0.80
2023-05-19T14:47:48.401Z,1.10
2023-05-19T14:50:16.187Z,1.50
2023-05-19T14:52:44.105Z,1.13
2023-05-19T14:55:13.568Z,1.05
2023-05-19T14:57:41.199Z,1.15
2023-05-19T15:00:10.359Z,0.90
2023-05-19T15:02:41.263Z,0.90
2023-05-19T15:05:11.683Z,1.20
2023-05-19T15:07:39.577Z,1.00
2023-05-19T15:10:08.349Z,1.10
2023-05-19T15:12:38.580Z,1.38
2023-05-19T15:15:07.405Z,1.10
2023-05-19T15:17:35.966Z,1.10
2023-05-19T15:20:07.806Z,1.42
2023-05-19T15:22:37.812Z,1.27
2023-05-19T15:25:06.488Z,1.25
2023-05-19T15:27:35.668Z,1.00
2023-05-19T15:30:03.574Z,1.03
2023-05-19T15:32:31.472Z,0.95
2023-05-19T15:34:59.509Z,1.25
2023-05-19T15:37:27.463Z,1.10
2023-05-19T15:39:56.864Z,1.15
2023-05-19T15:42:24.754Z,1.83
2023-05-19T15:44:52.670Z,1.20
2023-05-19T15:47:20.917Z,1.10
2023-05-19T15:49:49.043Z,1.20
2023-05-19T15:52:17.958Z,0.80
2023-05-19T15:54:46.019Z,1.10
2023-05-19T15:57:16.461Z,1.20
2023-05-19T15:59:44.136Z,0.95
2023-05-19T16:02:12.996Z,1.65
2023-05-19T16:04:41.638Z,1.33
2023-05-19T16:07:09.670Z,1.23
2023-05-19T16:09:37.603Z,1.17
2023-05-19T16:12:05.660Z,1.23
2023-05-19T16:14:37.262Z,1.17
2023-05-19T16:17:12.185Z,1.00
2023-05-19T16:19:40.336Z,1.17
2023-05-19T16:22:08.028Z,1.10
2023-05-19T16:24:38.586Z,1.00
2023-05-19T16:27:07.216Z,1.30
2023-05-19T16:29:40.845Z,1.13
2023-05-19T16:32:09.473Z,1.10
2023-05-19T16:34:37.524Z,1.40
2023-05-19T16:37:06.685Z,1.10
2023-05-19T16:39:37.516Z,1.08
2023-05-19T16:42:05.727Z,1.08
2023-05-19T16:44:33.541Z,1.30
2023-05-19T16:47:02.847Z,1.17
2023-05-19T16:49:30.466Z,1.27
2023-05-19T16:52:00.140Z,0.88
2023-05-19T16:54:29.536Z,1.08
2023-05-19T16:56:57.546Z,1.40
2023-05-19T16:59:27.925Z,1.40
2023-05-19T17:01:56.050Z,1.17
2023-05-19T17:04:25.797Z,1.17
2023-05-19T17:06:56.733Z,1.00
2023-05-19T17:09:26.142Z,1.30
2023-05-19T17:11:54.153Z,1.20
2023-05-19T17:14:21.769Z,0.98
2023-05-19T17:16:49.914Z,1.20
2023-05-19T17:19:18.008Z,1.10
2023-05-19T17:21:48.486Z,0.97
2023-05-19T17:24:16.589Z,1.02
2023-05-19T17:26:46.251Z,1.00
2023-05-19T17:29:14.476Z,1.00
2023-05-19T17:31:43.037Z,1.27
2023-05-19T17:34:12.399Z,1.00
2023-05-19T17:36:40.429Z,1.15
2023-05-19T17:39:12.132Z,1.30
2023-05-19T17:41:39.906Z,2.10
2023-05-19T17:44:08.583Z,1.25
2023-05-19T17:46:38.952Z,1.40
2023-05-19T17:49:06.877Z,0.80
2023-05-19T17:51:35.530Z,1.05
2023-05-19T17:54:04.878Z,1.50
2023-05-19T17:56:41.786Z,1.25
2023-05-19T17:59:11.328Z,1.20
2023-05-19T18:01:40.563Z,1.15
2023-05-19T18:04:09.627Z,1.27
2023-05-19T18:06:38.658Z,1.20
2023-05-19T18:09:09.676Z,1.17
2023-05-19T18:11:38.958Z,1.13
2023-05-19T18:14:06.730Z,1.20
2023-05-19T18:16:34.587Z,1.30
2023-05-19T18:19:02.392Z,1.13
2023-05-19T18:21:32.444Z,1.48
2023-05-19T18:24:03.190Z,1.10
2023-05-19T18:26:33.090Z,1.02
2023-05-19T18:29:05.073Z,1.40
2023-05-19T18:31:32.990Z,1.50
2023-05-19T18:34:01.154Z,1.65
2023-05-19T18:36:28.942Z,1.87
2023-05-19T18:38:58.150Z,1.40
2023-05-19T18:41:26.998Z,1.60
2023-05-19T18:43:54.926Z,1.70
2023-05-19T18:46:24.231Z,2.33
2023-05-19T18:48:52.335Z,2.40
2023-05-19T18:51:21.397Z,2.55
2023-05-19T18:53:50.158Z,1.85
2023-05-19T18:56:24.524Z,2.28
2023-05-19T18:58:52.450Z,1.70
2023-05-19T19:01:20.268Z,2.47
2023-05-19T19:03:49.765Z,1.85
2023-05-19T19:06:18.439Z,2.38
2023-05-19T19:08:46.472Z,1.85
2023-05-19T19:11:14.816Z,2.15
2023-05-19T19:13:45.327Z,1.93
2023-05-19T19:16:14.630Z,2.40
2023-05-19T19:18:42.439Z,1.73
2023-05-19T19:21:12.150Z,1.55
2023-05-19T19:23:40.310Z,1.58
2023-05-19T19:26:09.685Z,1.87
2023-05-19T19:28:37.756Z,1.90
2023-05-19T19:31:05.751Z,1.77
2023-05-19T19:33:33.840Z,1.95
2023-05-19T19:36:02.061Z,1.70
2023-05-19T19:38:31.555Z,1.50
2023-05-19T19:40:59.820Z,2.20
2023-05-19T19:43:40.890Z,1.70
2023-05-19T19:46:09.421Z,1.80
2023-05-19T19:48:37.848Z,1.92
2023-05-19T19:51:05.972Z,1.97
2023-05-19T19:53:35.629Z,1.83
2023-05-19T19:56:07.315Z,2.22
2023-05-19T19:58:35.517Z,1.90
2023-05-19T20:01:05.989Z,2.00
2023-05-19T20:03:34.881Z,2.00
2023-05-19T20:06:03.259Z,1.88
2023-05-19T20:08:31.624Z,1.60
2023-05-19T20:11:00.977Z,2.00
2023-05-19T20:13:30.625Z,1.90
2023-05-19T20:15:59.113Z,2.03
2023-05-19T20:18:27.874Z,1.80
2023-05-19T20:20:56.030Z,1.75
2023-05-19T20:23:23.983Z,2.25
2023-05-19T20:26:09.986Z,2.03
2023-05-19T20:28:41.877Z,2.00
2023-05-19T20:31:09.800Z,1.70
2023-05-19T20:33:37.463Z,1.88
2023-05-19T20:36:06.854Z,1.95
2023-05-19T20:38:34.849Z,2.03
2023-05-19T20:41:03.894Z,2.13
2023-05-19T20:43:33.223Z,1.60
2023-05-19T20:46:04.209Z,2.10
2023-05-19T20:48:32.894Z,1.90
2023-05-19T20:51:01.989Z,2.60
2023-05-19T20:53:29.772Z,2.53
2023-05-19T20:55:57.695Z,2.63
2023-05-19T20:58:26.740Z,2.38
2023-05-19T21:00:58.943Z,2.10
2023-05-19T21:03:28.821Z,2.10
2023-05-19T21:05:57.521Z,2.10
2023-05-19T21:08:27.058Z,1.88
2023-05-19T21:10:55.680Z,2.03
2023-05-19T21:13:23.832Z,1.92
2023-05-19T21:15:53.112Z,2.20
2023-05-19T21:18:21.447Z,2.03
2023-05-19T21:20:50.956Z,2.47
2023-05-19T21:23:18.961Z,1.85
2023-05-19T21:25:46.920Z,2.20
2023-05-19T21:28:15.962Z,1.98
2023-05-19T21:30:48.358Z,2.30
2023-05-19T21:33:16.988Z,2.05
2023-05-19T21:35:45.903Z,1.83
2023-05-19T21:38:23.444Z,2.13
2023-05-19T21:40:52.224Z,2.20
2023-05-19T21:43:21.504Z,2.13
2023-05-19T21:45:49.704Z,2.00
2023-05-19T21:48:17.932Z,1.95
2023-05-19T21:50:46.941Z,2.00
2023-05-19T21:53:16.328Z,2.00
2023-05-19T21:55:47.233Z,2.17
2023-05-19T21:58:15.120Z,2.15
2023-05-19T22:00:44.056Z,2.40
2023-05-19T22:03:12.753Z,1.77
2023-05-19T22:05:41.416Z,2.42
2023-05-19T22:08:09.720Z,2.13
2023-05-19T22:10:39.098Z,2.20
2023-05-19T22:13:07.360Z,2.30
2023-05-19T22:15:35.059Z,2.35
2023-05-19T22:18:03.397Z,2.47
2023-05-19T22:20:31.874Z,2.30
2023-05-19T22:23:01.456Z,2.42
2023-05-19T22:25:29.578Z,2.50
2023-05-19T22:27:59.012Z,2.50
2023-05-19T22:30:27.218Z,2.78
2023-05-19T22:32:55.359Z,2.37
2023-05-19T22:35:23.777Z,2.50
2023-05-19T22:37:51.959Z,2.00
2023-05-19T22:40:24.458Z,2.30
2023-05-19T22:42:52.549Z,2.30
2023-05-19T22:45:22.078Z,2.83
2023-05-19T22:47:50.755Z,2.80
2023-05-19T22:50:20.315Z,2.70
2023-05-19T22:52:48.192Z,2.75
2023-05-19T22:55:16.729Z,2.50
2023-05-19T22:57:45.361Z,2.43
2023-05-19T23:00:14.953Z,2.83
2023-05-19T23:02:44.847Z,2.80
2023-05-19T23:05:15.735Z,3.00
2023-05-19T23:07:43.590Z,2.83
2023-05-19T23:10:12.052Z,2.50
2023-05-19T23:12:40.400Z,2.90
2023-05-19T23:15:10.497Z,2.72
2023-05-19T23:17:40.901Z,3.08
2023-05-19T23:20:14.978Z,2.65
2023-05-19T23:22:45.551Z,2.80
2023-05-19T23:25:13.958Z,3.08
2023-05-19T23:27:46.648Z,3.22
2023-05-19T23:30:14.921Z,2.75
2023-05-19T23:32:42.987Z,3.22
2023-05-19T23:35:16.188Z,3.50
2023-05-19T23:37:45.253Z,2.80
2023-05-19T23:40:13.768Z,3.13
2023-05-19T23:42:44.861Z,2.70
2023-05-19T23:45:13.428Z,3.10
2023-05-19T23:47:41.611Z,3.00
2023-05-19T23:50:12.693Z,3.35
2023-05-19T23:52:42.953Z,3.42
2023-05-19T23:55:12.730Z,3.03
2023-05-19T23:57:42.181Z,3.10
